createdAt,value
2023-03-02T00:38:17.894Z,27.95
2023-03-02T00:39:17.848Z,28.05
2023-03-02T00:40:17.976Z,26.52
2023-03-02T00:41:18.113Z,28.24
2023-03-02T00:42:18.275Z,27.72
2023-03-02T00:43:18.505Z,25.55
2023-03-02T00:44:18.618Z,27.01
2023-03-02T00:45:18.774Z,25.91
2023-03-02T00:46:19.029Z,27.25
2023-03-02T00:47:19.216Z,28.10
2023-03-02T00:48:19.403Z,27.60
2023-03-02T00:49:19.529Z,25.86
2023-03-02T00:50:19.651Z,27.22
2023-03-02T00:51:19.788Z,28.39
2023-03-02T00:52:19.920Z,25.97
2023-03-02T00:53:20.042Z,27.03
2023-03-02T00:54:20.175Z,26.68
2023-03-02T00:55:20.316Z,27.81
2023-03-02T00:56:20.442Z,26.58
2023-03-02T00:57:20.565Z,26.16
2023-03-02T00:58:20.688Z,26.30
2023-03-02T00:59:20.813Z,28.38
2023-03-02T01:00:20.931Z,29.45
2023-03-02T01:01:21.080Z,26.40
2023-03-02T01:02:21.273Z,27.22
2023-03-02T01:03:21.400Z,27.50
2023-03-02T01:04:21.463Z,27.89
2023-03-02T01:05:21.621Z,26.83
2023-03-02T01:06:21.746Z,27.76
2023-03-02T01:07:21.875Z,26.72
2023-03-02T01:08:22.017Z,27.02
2023-03-02T01:09:22.161Z,27.63
2023-03-02T01:10:22.315Z,27.50
2023-03-02T01:11:22.433Z,26.46
2023-03-02T01:12:22.553Z,26.64
2023-03-02T01:13:22.711Z,27.05
2023-03-02T01:14:22.809Z,28.20
2023-03-02T01:15:22.951Z,28.02
2023-03-02T01:16:23.095Z,26.68
2023-03-02T01:17:23.192Z,27.32
2023-03-02T01:18:23.329Z,29.79
2023-03-02T01:19:23.453Z,27.25
2023-03-02T01:20:23.593Z,26.24
2023-03-02T01:21:23.727Z,28.32
2023-03-02T01:22:23.862Z,28.90
2023-03-02T01:23:23.987Z,27.83
2023-03-02T01:24:24.110Z,27.50
2023-03-02T01:25:24.251Z,27.48
2023-03-02T01:26:24.379Z,27.31
2023-03-02T01:27:24.510Z,27.67
2023-03-02T01:28:24.649Z,27.58
2023-03-02T01:29:24.807Z,28.20
2023-03-02T01:30:24.978Z,27.62
2023-03-02T01:31:25.219Z,27.71
2023-03-02T01:32:25.395Z,26.85
2023-03-02T01:33:25.596Z,27.82
2023-03-02T01:34:25.801Z,28.39
2023-03-02T01:36:26.214Z,27.47
2023-03-02T01:37:26.424Z,27.13
2023-03-02T01:38:26.658Z,28.32
2023-03-02T01:39:26.848Z,28.12
2023-03-02T01:40:27.077Z,28.69
2023-03-02T01:41:27.349Z,26.62
2023-03-02T01:42:27.487Z,26.76
2023-03-02T01:43:27.686Z,27.23
2023-03-02T01:44:27.888Z,26.93
2023-03-02T01:45:28.255Z,26.22
2023-03-02T01:46:28.471Z,25.74
2023-03-02T01:47:28.750Z,26.28
2023-03-02T01:48:29.014Z,25.24
2023-03-02T01:49:29.250Z,26.20
2023-03-02T01:50:29.416Z,27.68
2023-03-02T01:51:29.586Z,24.40
2023-03-02T01:52:29.802Z,25.94
2023-03-02T01:54:30.373Z,24.16
2023-03-02T01:55:30.611Z,24.91
2023-03-02T01:56:31.331Z,25.45
2023-03-02T01:57:31.031Z,26.93
2023-03-02T01:58:31.160Z,26.66
2023-03-02T01:59:31.297Z,27.17
2023-03-02T02:00:31.428Z,30.40
2023-03-02T02:02:31.681Z,34.37
2023-03-02T02:54:07.853Z,20.39
2023-03-02T02:55:08.008Z,20.27
2023-03-02T02:56:08.218Z,22.31
2023-03-02T02:57:08.406Z,20.97
2023-03-02T02:58:08.637Z,22.52
2023-03-02T02:59:08.867Z,22.65
2023-03-02T03:00:09.087Z,22.38
2023-03-02T03:49:17.791Z,23.05
2023-03-02T04:42:27.893Z,18.26
2023-03-02T04:43:28.101Z,18.42
2023-03-02T04:44:28.322Z,20.94
2023-03-02T04:45:28.559Z,20.90
2023-03-02T04:46:28.860Z,19.60
2023-03-02T04:47:28.859Z,19.15
2023-03-02T04:48:29.123Z,19.55
2023-03-02T04:49:29.326Z,18.80
2023-03-02T04:50:29.533Z,18.12
2023-03-02T04:51:29.727Z,19.11
2023-03-02T04:52:29.928Z,19.02
2023-03-02T04:53:30.133Z,21.39
2023-03-02T04:54:30.360Z,20.12
2023-03-02T04:55:30.573Z,19.20
2023-03-02T04:56:31.110Z,19.33
2023-03-02T04:57:30.980Z,19.03
2023-03-02T04:58:30.765Z,19.89
2023-03-02T04:59:30.771Z,21.33
2023-03-02T05:00:33.274Z,19.20
2023-03-02T05:01:30.780Z,21.88
2023-03-02T05:02:30.814Z,20.76
2023-03-02T05:31:30.278Z,21.93
2023-03-02T05:33:30.072Z,21.87
2023-03-02T05:34:30.053Z,21.63
2023-03-02T05:35:30.051Z,19.68
2023-03-02T05:36:30.011Z,19.72
2023-03-02T05:37:29.981Z,18.83
2023-03-02T05:38:29.974Z,18.77
2023-03-02T05:39:30.673Z,19.38
2023-03-02T05:40:30.016Z,19.32
2023-03-02T05:41:30.037Z,17.92
2023-03-02T05:42:30.024Z,18.23
2023-03-02T05:43:30.034Z,17.78
2023-03-02T05:44:30.035Z,16.44
2023-03-02T05:45:30.049Z,18.15
2023-03-02T05:46:30.161Z,17.97
2023-03-02T05:47:30.089Z,17.91
2023-03-02T05:48:30.113Z,17.99
2023-03-02T05:49:30.127Z,16.94
2023-03-02T05:50:30.144Z,18.09
2023-03-02T05:51:30.155Z,17.92
2023-03-02T05:52:30.217Z,18.61
2023-03-02T05:53:30.320Z,20.03
2023-03-02T05:54:30.212Z,18.02
2023-03-02T05:55:30.223Z,20.92
2023-03-02T05:56:30.470Z,19.66
2023-03-02T05:57:30.218Z,20.14
2023-03-02T05:58:30.214Z,19.46
2023-03-02T05:59:30.204Z,17.63
2023-03-02T06:00:30.201Z,18.86
2023-03-02T06:01:30.221Z,19.45
2023-03-02T06:02:30.184Z,18.44
2023-03-02T06:03:30.218Z,19.89
2023-03-02T06:04:30.120Z,20.46
2023-03-02T06:05:30.178Z,20.04
2023-03-02T06:35:30.935Z,21.22
2023-03-02T08:39:37.877Z,24.75
2023-03-02T08:40:38.233Z,23.93
2023-03-02T08:41:38.312Z,23.00
2023-03-02T08:42:38.580Z,23.38
2023-03-02T08:43:38.688Z,21.33
2023-03-02T08:44:38.924Z,22.26
2023-03-02T08:45:39.063Z,24.24
2023-03-02T08:46:39.219Z,21.81
2023-03-02T08:47:39.408Z,21.58
2023-03-02T08:48:39.606Z,21.75
2023-03-02T08:49:40.193Z,21.05
2023-03-02T08:50:39.756Z,21.33
2023-03-02T08:51:39.720Z,20.63
2023-03-02T08:52:39.726Z,20.57
2023-03-02T08:53:39.676Z,22.43
2023-03-02T08:54:39.701Z,20.92
2023-03-02T08:55:39.634Z,21.90
2023-03-02T08:56:39.609Z,19.68
2023-03-02T08:57:39.578Z,21.56
2023-03-02T08:58:39.566Z,19.93
2023-03-02T08:59:39.561Z,19.81
2023-03-02T09:01:39.478Z,19.48
2023-03-02T09:02:39.364Z,21.25
2023-03-02T09:03:39.298Z,19.34
2023-03-02T09:04:39.367Z,20.74
2023-03-02T09:05:39.161Z,21.63
2023-03-02T09:06:39.088Z,22.96
2023-03-02T09:07:39.018Z,22.37
2023-03-02T09:08:38.994Z,20.84
2023-03-02T09:09:38.881Z,20.75
2023-03-02T09:10:38.820Z,20.02
2023-03-02T09:11:38.736Z,19.77
2023-03-02T09:12:38.710Z,19.20
2023-03-02T09:13:38.587Z,20.31
2023-03-02T09:14:38.564Z,18.05
2023-03-02T09:15:38.449Z,18.86
2023-03-02T09:16:38.588Z,19.69
2023-03-02T09:17:38.733Z,19.36
2023-03-02T09:18:38.871Z,19.67
2023-03-02T09:19:39.077Z,19.49
2023-03-02T09:20:39.280Z,20.28
2023-03-02T09:21:39.452Z,18.88
2023-03-02T09:22:39.654Z,20.19
2023-03-02T09:23:39.847Z,18.66
2023-03-02T09:24:40.169Z,18.69
2023-03-02T09:25:40.322Z,18.61
2023-03-02T09:27:40.426Z,18.10
2023-03-02T09:28:40.380Z,17.30
2023-03-02T09:29:40.343Z,18.57
2023-03-02T09:31:40.273Z,17.39
2023-03-02T09:32:40.377Z,17.56
2023-03-02T09:34:40.101Z,18.53
2023-03-02T09:35:40.035Z,18.38
2023-03-02T09:37:39.958Z,19.09
2023-03-02T09:39:39.860Z,18.46
2023-03-02T09:42:44.167Z,17.40
2023-03-02T09:58:38.090Z,15.10
2023-03-02T09:59:37.984Z,16.04
2023-03-02T10:00:37.923Z,15.99
2023-03-02T10:01:37.883Z,15.25
2023-03-02T10:02:37.854Z,14.83
2023-03-02T10:04:37.800Z,15.98
2023-03-02T10:13:38.732Z,13.23
2023-03-02T10:25:37.744Z,12.30
2023-03-02T10:28:38.716Z,14.14
2023-03-02T10:39:39.228Z,10.69
2023-03-02T12:03:38.266Z,5.42
2023-03-02T12:13:37.934Z,4.44
2023-03-02T12:14:37.988Z,4.32
2023-03-02T12:15:38.187Z,4.29
2023-03-02T12:16:38.344Z,4.01
2023-03-02T12:17:38.444Z,4.64
2023-03-02T12:18:38.532Z,4.42
2023-03-02T12:19:38.726Z,4.37
2023-03-02T12:20:38.755Z,4.05
2023-03-02T12:21:38.944Z,3.35
2023-03-02T12:22:39.074Z,3.86
2023-03-02T12:23:39.177Z,3.61
2023-03-02T12:24:39.303Z,4.11
2023-03-02T12:25:39.392Z,3.52
2023-03-02T12:26:39.583Z,4.04
2023-03-02T12:27:39.713Z,4.42
2023-03-02T12:28:39.769Z,3.46
2023-03-02T12:29:39.948Z,3.81
2023-03-02T12:30:40.136Z,3.87
2023-03-02T12:31:40.194Z,3.04
2023-03-02T12:32:40.329Z,2.97
2023-03-02T12:33:40.435Z,2.66
2023-03-02T12:34:40.507Z,3.01
2023-03-02T12:35:40.698Z,2.95
2023-03-02T12:36:40.848Z,2.83
2023-03-02T12:37:41.017Z,2.88
2023-03-02T12:38:41.167Z,2.88
2023-03-02T12:39:41.280Z,2.94
2023-03-02T12:40:41.422Z,2.64
2023-03-02T12:41:41.509Z,2.50
2023-03-02T12:42:41.660Z,2.94
2023-03-02T12:43:41.832Z,3.04
2023-03-02T12:44:41.931Z,2.91
2023-03-02T12:45:42.017Z,2.96
2023-03-02T12:46:42.154Z,2.51
2023-03-02T12:57:42.590Z,2.67
2023-03-02T12:58:42.397Z,2.75
2023-03-02T12:59:42.205Z,2.26
2023-03-02T13:00:42.067Z,2.58
2023-03-02T13:01:41.831Z,2.54
2023-03-02T13:02:41.693Z,2.63
2023-03-02T13:03:41.481Z,2.29
2023-03-02T13:04:41.274Z,2.11
2023-03-02T13:05:41.075Z,1.98
2023-03-02T13:06:40.896Z,1.99
2023-03-02T13:07:40.743Z,1.73
2023-03-02T13:08:41.173Z,2.17
2023-03-02T13:09:47.771Z,1.95
2023-03-02T13:10:41.232Z,2.33
2023-03-02T13:11:40.023Z,2.32
2023-03-02T13:12:39.811Z,1.98
2023-03-02T13:13:39.623Z,2.22
2023-03-02T13:14:39.412Z,2.27
2023-03-02T13:15:39.202Z,2.05
2023-03-02T13:16:39.016Z,2.82
2023-03-02T13:17:38.806Z,2.17
2023-03-02T13:18:38.601Z,2.53
2023-03-02T13:19:38.426Z,2.53
2023-03-02T13:20:38.289Z,2.66
2023-03-02T13:21:38.159Z,2.35
2023-03-02T13:22:38.076Z,2.29
2023-03-02T13:23:37.865Z,2.54
2023-03-02T13:48:37.794Z,2.64
2023-03-02T13:49:37.946Z,2.75
2023-03-02T13:50:38.052Z,2.97
2023-03-02T13:51:38.163Z,2.85
2023-03-02T13:52:38.263Z,1.90
2023-03-02T13:53:38.476Z,2.37
2023-03-02T13:54:38.504Z,2.80
2023-03-02T13:55:38.688Z,2.53
2023-03-02T13:56:38.806Z,1.90
2023-03-02T13:57:38.954Z,2.68
2023-03-02T13:58:39.099Z,2.22
2023-03-02T13:59:39.137Z,2.13
2023-03-02T14:00:39.232Z,2.17
2023-03-02T14:01:39.427Z,2.57
2023-03-02T14:02:39.491Z,2.41
2023-03-02T14:03:39.546Z,2.15
2023-03-02T14:04:39.757Z,2.38
2023-03-02T14:05:39.848Z,2.04
2023-03-02T14:06:39.888Z,2.06
2023-03-02T14:07:39.973Z,2.45
2023-03-02T14:08:40.153Z,2.40
2023-03-02T14:09:40.205Z,2.41
2023-03-02T14:10:40.392Z,2.36
2023-03-02T15:04:47.747Z,2.01
2023-03-02T15:06:48.035Z,1.79
2023-03-02T16:05:50.382Z,3.39
2023-03-02T17:00:57.913Z,2.15
2023-03-02T17:01:57.963Z,1.87
2023-03-02T17:02:58.192Z,2.45
2023-03-02T17:03:58.386Z,2.59
2023-03-02T17:04:58.576Z,2.14
2023-03-02T17:05:58.700Z,3.54
2023-03-02T17:07:00.709Z,3.64
2023-03-02T17:07:58.827Z,4.73
2023-03-02T17:08:58.738Z,3.63
2023-03-02T17:09:58.647Z,3.78
2023-03-02T17:10:58.566Z,3.82
2023-03-02T17:11:58.745Z,3.76
2023-03-02T17:12:58.965Z,4.38
2023-03-02T17:13:59.121Z,4.26
2023-03-02T17:14:59.287Z,4.71
2023-03-02T17:15:59.467Z,4.49
2023-03-02T17:16:59.591Z,3.50
2023-03-02T17:17:59.843Z,3.75
2023-03-02T17:19:00.317Z,4.44
2023-03-02T17:19:59.867Z,4.39
2023-03-02T17:20:59.820Z,4.27
2023-03-02T17:21:59.731Z,4.27
2023-03-02T17:22:59.650Z,5.07
2023-03-02T17:23:59.863Z,4.64
2023-03-02T17:25:00.037Z,4.54
2023-03-02T17:26:00.218Z,5.13
2023-03-02T17:27:00.407Z,6.09
2023-03-02T17:28:00.510Z,5.38
2023-03-02T17:29:00.668Z,5.14
2023-03-02T17:30:01.219Z,5.06
2023-03-02T17:31:02.988Z,5.61
2023-03-02T17:32:01.010Z,5.04
2023-03-02T17:33:00.828Z,5.45
2023-03-02T17:34:00.703Z,5.63
2023-03-02T17:35:00.567Z,5.72
2023-03-02T17:36:00.660Z,6.28
2023-03-02T17:37:00.919Z,5.69
2023-03-02T17:38:01.065Z,5.53
2023-03-02T17:39:01.130Z,6.34
2023-03-02T17:40:01.314Z,7.92
2023-03-02T17:41:01.425Z,7.28
2023-03-02T17:42:01.617Z,8.21
2023-03-02T17:43:01.758Z,7.88
2023-03-02T17:44:01.932Z,6.84
2023-03-02T17:45:02.057Z,6.51
2023-03-02T17:46:02.307Z,6.48
2023-03-02T17:47:02.415Z,6.99
2023-03-02T19:09:02.387Z,4.93
2023-03-02T19:10:02.273Z,5.67
2023-03-02T19:11:02.198Z,5.16
2023-03-02T19:12:02.086Z,4.86
2023-03-02T19:13:01.986Z,5.61
2023-03-02T19:14:01.915Z,5.69
2023-03-02T19:15:01.794Z,5.54
2023-03-02T19:16:01.737Z,5.64
2023-03-02T19:17:01.604Z,5.49
2023-03-02T19:18:01.507Z,5.71
2023-03-02T19:19:01.464Z,5.51
2023-03-02T19:20:01.419Z,5.83
2023-03-02T19:21:01.399Z,5.62
2023-03-02T19:22:01.329Z,5.52
2023-03-02T19:23:01.293Z,4.98
2023-03-02T19:24:01.252Z,5.84
2023-03-02T19:25:01.224Z,5.91
2023-03-02T19:26:01.188Z,6.04
2023-03-02T19:27:01.280Z,6.42
2023-03-02T19:28:01.362Z,6.20
2023-03-02T19:29:01.559Z,5.77
2023-03-02T19:30:01.666Z,6.44
2023-03-02T19:31:01.789Z,7.11
2023-03-02T19:32:01.975Z,6.95
2023-03-02T19:33:02.045Z,6.45
2023-03-02T19:34:02.156Z,6.28
2023-03-02T19:35:02.255Z,5.30
2023-03-02T19:36:02.397Z,5.06
2023-03-02T19:37:02.458Z,5.54
2023-03-02T19:38:02.556Z,4.94
2023-03-02T19:39:02.681Z,5.03
2023-03-02T19:40:02.795Z,5.01
2023-03-02T19:41:02.918Z,5.18
2023-03-02T19:42:03.043Z,5.51
2023-03-02T19:43:03.192Z,5.23
2023-03-02T19:44:03.346Z,4.94
2023-03-02T19:45:03.498Z,4.70
2023-03-02T19:46:03.663Z,5.28
2023-03-02T19:47:03.769Z,5.11
2023-03-02T19:48:03.926Z,4.90
2023-03-02T19:49:04.060Z,4.25
2023-03-02T19:50:04.212Z,4.71
2023-03-02T19:51:04.353Z,5.04
2023-03-02T19:52:04.518Z,5.91
2023-03-02T19:53:04.659Z,6.34
2023-03-02T19:54:04.841Z,6.11
2023-03-02T19:55:04.975Z,7.09
2023-03-02T19:56:05.144Z,6.65
2023-03-02T19:57:05.310Z,7.32
2023-03-02T19:58:05.469Z,7.65
2023-03-02T19:59:05.610Z,6.55
2023-03-02T20:00:05.775Z,7.14
2023-03-02T20:01:05.832Z,6.20
2023-03-02T20:02:06.030Z,4.85
2023-03-02T20:03:06.839Z,4.80
2023-03-02T20:04:06.150Z,4.87
2023-03-02T20:05:06.096Z,5.62
2023-03-02T20:06:06.052Z,6.58
2023-03-02T20:07:06.025Z,6.47
2023-03-02T20:08:05.978Z,5.33
2023-03-02T20:09:05.957Z,6.65
2023-03-02T20:10:05.892Z,5.75
2023-03-02T20:11:05.869Z,6.55
2023-03-02T20:12:05.818Z,6.77
2023-03-02T20:13:05.766Z,6.13
2023-03-02T20:14:05.727Z,5.65
2023-03-02T20:15:05.690Z,5.17
2023-03-02T20:16:05.658Z,4.94
2023-03-02T20:17:05.607Z,5.55
2023-03-02T20:18:05.592Z,5.59
2023-03-02T20:19:05.561Z,5.93
2023-03-02T20:20:05.531Z,5.46
2023-03-02T20:21:05.510Z,4.93
2023-03-02T20:22:05.474Z,4.63
2023-03-02T20:23:05.416Z,4.04
2023-03-02T20:24:05.380Z,4.34
2023-03-02T20:25:05.336Z,4.38
2023-03-02T20:26:05.322Z,4.38
2023-03-02T20:27:05.262Z,4.18
2023-03-02T20:28:05.224Z,4.97
2023-03-02T20:29:05.212Z,4.56
2023-03-02T20:30:05.162Z,5.17
2023-03-02T20:31:05.233Z,4.41
2023-03-02T20:32:05.197Z,5.40
2023-03-02T20:33:05.097Z,4.67
2023-03-02T20:34:05.078Z,4.65
2023-03-02T20:35:05.047Z,5.24
2023-03-02T20:36:05.019Z,4.52
2023-03-02T20:37:04.982Z,5.48
2023-03-02T21:50:07.831Z,10.69
2023-03-02T21:51:07.948Z,9.87
2023-03-02T21:52:08.173Z,9.45
2023-03-02T21:53:08.276Z,9.25
2023-03-02T21:54:08.500Z,9.93
2023-03-02T21:55:08.711Z,9.13
2023-03-02T21:56:08.823Z,8.72
2023-03-02T21:57:09.046Z,8.21
2023-03-02T21:58:09.144Z,8.17
2023-03-02T21:59:09.378Z,6.62
2023-03-02T22:00:09.479Z,7.66
2023-03-02T22:01:09.581Z,7.61
2023-03-02T22:02:09.831Z,7.87
2023-03-02T22:03:09.938Z,7.04
2023-03-02T22:04:10.070Z,6.84
2023-03-02T22:05:10.319Z,6.46
2023-03-02T22:06:10.441Z,7.13
2023-03-02T22:07:10.670Z,6.54
2023-03-02T22:08:10.776Z,6.42
2023-03-02T22:09:11.013Z,7.30
2023-03-02T22:10:11.223Z,5.74
2023-03-02T22:11:11.310Z,5.85
2023-03-02T22:54:17.860Z,5.61
2023-03-02T22:55:17.987Z,5.65
2023-03-02T22:56:20.081Z,6.24
2023-03-02T22:57:18.289Z,5.95
2023-03-02T22:58:18.103Z,6.73
2023-03-02T22:59:18.047Z,6.65
2023-03-02T23:00:18.010Z,8.31
2023-03-02T23:01:17.965Z,7.70
2023-03-02T23:02:17.907Z,7.46
2023-03-02T23:03:17.852Z,7.32
2023-03-02T23:04:17.840Z,6.40
2023-03-02T23:05:17.762Z,5.57
2023-03-02T23:11:17.767Z,6.55
2023-03-02T23:12:17.998Z,8.00
2023-03-02T23:13:18.146Z,8.16
2023-03-02T23:14:18.416Z,7.20
2023-03-02T23:15:18.578Z,6.62
2023-03-02T23:16:18.885Z,7.25
2023-03-02T23:17:18.987Z,5.90
2023-03-02T23:18:19.175Z,5.92
2023-03-02T23:19:19.367Z,5.95
2023-03-02T23:20:19.621Z,5.44
2023-03-02T23:21:19.812Z,5.28
2023-03-02T23:22:20.110Z,5.20
2023-03-02T23:23:20.275Z,5.19
2023-03-02T23:24:20.424Z,4.46
2023-03-02T23:25:20.614Z,4.76
2023-03-02T23:26:20.817Z,4.60
2023-03-02T23:27:20.975Z,3.76
2023-03-02T23:28:21.164Z,3.43
2023-03-02T23:29:21.425Z,4.17
2023-03-02T23:30:21.597Z,5.14
2023-03-02T23:31:21.848Z,4.25
2023-03-02T23:32:22.078Z,4.12
2023-03-02T23:33:22.200Z,3.80
2023-03-02T23:34:22.393Z,4.93
2023-03-02T23:35:22.593Z,5.46
2023-03-02T23:36:22.777Z,5.36
2023-03-02T23:37:22.944Z,5.06
2023-03-02T23:38:23.139Z,4.86
2023-03-02T23:39:23.311Z,4.89
2023-03-02T23:40:23.521Z,4.86
2023-03-02T23:41:23.751Z,4.73
2023-03-02T23:42:23.908Z,4.54
2023-03-02T23:43:24.055Z,5.00
2023-03-02T23:44:24.236Z,4.57
2023-03-02T23:45:24.401Z,4.50
2023-03-02T23:46:24.583Z,4.87
2023-03-02T23:47:24.755Z,4.57
2023-03-02T23:48:24.920Z,4.49
2023-03-02T23:49:25.101Z,3.84
2023-03-02T23:50:25.291Z,4.92
2023-03-02T23:51:25.508Z,4.35
2023-03-02T23:52:25.669Z,3.72
2023-03-02T23:53:25.906Z,3.47
2023-03-02T23:54:26.095Z,3.53
2023-03-02T23:55:26.297Z,3.67
2023-03-02T23:56:26.529Z,3.28
2023-03-02T23:57:26.718Z,3.65
2023-03-02T23:58:26.888Z,3.93
2023-03-02T23:59:27.142Z,5.17
